Orbital elements of FENGYUN 1C DEB
| Launched | 9 May 1999 |
| Flight ended | – |
| Launch site | Taiyuan Space Center, PRC |
| Owner | People's Republic of China |
| NORAD ID | 30472 |
| Date fetched |
Epoch osculation |
Inc. [°] |
Ecc. | RA asc node [hr] |
Arg Peri. [°] |
Mean anom [°] |
Mean motion [rev/day] |
Abs. mag |
| Date fetched |
Epoch osculation |
Inc. [°] |
Ecc. | RA asc node [hr] |
Arg Peri. [°] |
Mean anom [°] |
Mean motion [rev/day] |
Abs. mag |
| 2026 May 09 17:57 | 2026 May 05 07:22:14 | 98.6522 | 0.00350 | 15.7669 | 1.5451 | 59.1126 | 14.56945 | – |
| 2026 May 08 17:57 | 2026 May 05 07:22:14 | 98.6522 | 0.00350 | 15.7669 | 1.5451 | 59.1126 | 14.56945 | – |
| 2026 May 07 17:58 | 2026 May 05 07:22:14 | 98.6522 | 0.00350 | 15.7669 | 1.5451 | 59.1126 | 14.56945 | – |
| 2026 May 06 17:57 | 2026 May 05 07:22:14 | 98.6522 | 0.00350 | 15.7669 | 1.5451 | 59.1126 | 14.56945 | – |
| 2026 May 05 17:57 | 2026 May 05 07:22:14 | 98.6522 | 0.00350 | 15.7669 | 1.5451 | 59.1126 | 14.56945 | – |
| 2026 May 04 17:57 | 2026 Apr 30 07:01:02 | 98.6517 | 0.00354 | 15.4199 | 17.3802 | 59.1126 | 14.56945 | – |
| 2026 May 03 17:57 | 2026 Apr 30 07:01:02 | 98.6517 | 0.00354 | 15.4199 | 17.3802 | 59.1126 | 14.56945 | – |
| 2026 May 02 17:57 | 2026 Apr 30 07:01:02 | 98.6517 | 0.00354 | 15.4199 | 17.3802 | 59.1126 | 14.56945 | – |
| 2026 May 01 17:56 | 2026 Apr 30 07:01:02 | 98.6517 | 0.00354 | 15.4199 | 17.3802 | 59.1126 | 14.56945 | – |
| 2026 Apr 30 17:56 | 2026 Apr 30 07:01:02 | 98.6517 | 0.00354 | 15.4199 | 17.3802 | 59.1126 | 14.56945 | – |
| 2026 Apr 29 17:57 | 2026 Apr 24 05:50:40 | 98.6507 | 0.00359 | 15.0014 | 36.3991 | 59.1126 | 14.56945 | – |
| 2026 Apr 28 17:56 | 2026 Apr 24 05:50:40 | 98.6507 | 0.00359 | 15.0014 | 36.3991 | 59.1126 | 14.56945 | – |
| 2026 Apr 27 17:58 | 2026 Apr 24 05:50:40 | 98.6507 | 0.00359 | 15.0014 | 36.3991 | 59.1126 | 14.56945 | – |
| 2026 Apr 26 17:58 | 2026 Apr 24 05:50:40 | 98.6507 | 0.00359 | 15.0014 | 36.3991 | 59.1126 | 14.56945 | – |
| 2026 Apr 25 17:58 | 2026 Apr 24 05:50:40 | 98.6507 | 0.00359 | 15.0014 | 36.3991 | 59.1126 | 14.56945 | – |
| 2026 Apr 24 17:59 | 2026 Apr 24 05:50:40 | 98.6507 | 0.00359 | 15.0014 | 36.3991 | 59.1126 | 14.56945 | – |
| 2026 Apr 23 17:57 | 2026 Apr 18 06:25:26 | 98.6510 | 0.00365 | 14.5879 | 54.8492 | 59.1126 | 14.56945 | – |
| 2026 Apr 22 17:57 | 2026 Apr 18 06:25:26 | 98.6510 | 0.00365 | 14.5879 | 54.8492 | 59.1126 | 14.56945 | – |
| 2026 Apr 21 17:57 | 2026 Apr 18 06:25:26 | 98.6510 | 0.00365 | 14.5879 | 54.8492 | 59.1126 | 14.56945 | – |
| 2026 Apr 20 17:57 | 2026 Apr 18 06:25:26 | 98.6510 | 0.00365 | 14.5879 | 54.8492 | 59.1126 | 14.56945 | – |
| 2026 Apr 19 17:58 | 2026 Apr 18 06:25:26 | 98.6510 | 0.00365 | 14.5879 | 54.8492 | 59.1126 | 14.56945 | – |
| 2026 Apr 18 17:56 | 2026 Apr 13 06:04:51 | 98.6494 | 0.00369 | 14.2411 | 69.9443 | 59.1126 | 14.56945 | – |
| 2026 Apr 16 17:57 | 2026 Apr 13 06:04:51 | 98.6494 | 0.00369 | 14.2411 | 69.9443 | 59.1126 | 14.56945 | – |
| 2026 Apr 14 17:57 | 2026 Apr 13 06:04:51 | 98.6494 | 0.00369 | 14.2411 | 69.9443 | 59.1126 | 14.56945 | – |
| 2026 Apr 13 17:57 | 2026 Apr 13 06:04:51 | 98.6494 | 0.00369 | 14.2411 | 69.9443 | 59.1126 | 14.56945 | – |
| 2026 Apr 12 17:57 | 2026 Apr 08 05:44:13 | 98.6490 | 0.00374 | 13.8943 | 85.0585 | 59.1126 | 14.56945 | – |